Wetterdaten: Woche 18.03.19 - 24.03.19 (KW12)
Datum Zeit Temp. Aussen Temp. o. S. +5cm Feuchte Auss Luftdruck Regen Sonnenschein Regendauer Solar Windben Empfang
18.03.2019 00:00 3,2 C 2,6 C 2,1 C 89 % 1009,2 hPa 0,0 l/m 0,00 h 0,00 h 0 W/m 13,1 km/h (3 Bft) 93,88 %
18.03.2019 01:00 2,9 C 2,2 C 1,7 C 90 % 1009,4 hPa 0,0 l/m 0,00 h 0,00 h 0 W/m 13,4 km/h (3 Bft) 98,16 %
18.03.2019 02:00 2,8 C 2,2 C 1,7 C 91 % 1009,7 hPa 0,0 l/m 0,00 h 0,00 h 0 W/m 14,0 km/h (3 Bft) 97,44 %
18.03.2019 03:00 2,7 C 2,2 C 1,7 C 92 % 1009,9 hPa 0,0 l/m 0,00 h 0,00 h 0 W/m 12,7 km/h (3 Bft) 95,74 %
18.03.2019 04:00 3,0 C 2,3 C 1,8 C 92 % 1010,6 hPa 0,6 l/m 0,00 h 0,83 h 0 W/m 11,3 km/h (2 Bft) 99,47 %
18.03.2019 05:00 3,1 C 2,2 C 1,8 C 94 % 1011,2 hPa 0,0 l/m 0,00 h 0,47 h 0 W/m 7,7 km/h (2 Bft) 97,77 %
18.03.2019 06:00 3,2 C 2,3 C 1,9 C 95 % 1012,1 hPa 0,2 l/m 0,00 h 0,27 h 6 W/m 5,6 km/h (1 Bft) 95,44 %
18.03.2019 07:00 3,1 C 2,3 C 1,8 C 95 % 1013,0 hPa 0,0 l/m 0,03 h 0,40 h 30 W/m 7,6 km/h (2 Bft) 98,57 %
18.03.2019 08:00 3,5 C 3,5 C 2,6 C 95 % 1013,6 hPa 0,0 l/m 0,13 h 0,27 h 80 W/m 8,3 km/h (2 Bft) 97,72 %
18.03.2019 09:00 5,5 C 8,6 C 6,1 C 93 % 1014,5 hPa 0,0 l/m 0,87 h 0,07 h 347 W/m 15,9 km/h (3 Bft) 97,30 %
18.03.2019 10:00 7,7 C 11,8 C 7,5 C 83 % 1015,3 hPa 0,0 l/m 0,80 h 0,00 h 448 W/m 15,1 km/h (3 Bft) 98,50 %
18.03.2019 11:00 8,1 C 10,3 C 8,7 C 79 % 1015,7 hPa 0,0 l/m 0,80 h 0,00 h 324 W/m 16,4 km/h (3 Bft) 98,57 %
18.03.2019 12:00 9,3 C 13,4 C 11,1 C 73 % 1016,1 hPa 0,0 l/m 0,67 h 0,00 h 486 W/m 15,8 km/h (3 Bft) 98,03 %
18.03.2019 13:00 8,0 C 7,5 C 6,7 C 75 % 1016,7 hPa 0,0 l/m 0,10 h 0,80 h 150 W/m 20,3 km/h (4 Bft) 96,79 %
18.03.2019 14:00 8,6 C 13,3 C 9,0 C 73 % 1016,7 hPa 0,0 l/m 0,73 h 0,00 h 463 W/m 17,0 km/h (3 Bft) 97,36 %
18.03.2019 15:00 9,9 C 11,5 C 9,1 C 64 % 1016,8 hPa 0,0 l/m 0,30 h 0,00 h 293 W/m 17,8 km/h (3 Bft) 97,22 %
18.03.2019 16:00 9,8 C 12,5 C 10,6 C 63 % 1017,2 hPa 0,0 l/m 0,97 h 0,00 h 338 W/m 16,8 km/h (3 Bft) 99,14 %
18.03.2019 17:00 9,1 C 8,3 C 7,7 C 65 % 1017,8 hPa 0,0 l/m 0,30 h 0,00 h 72 W/m 18,6 km/h (3 Bft) 97,58 %
18.03.2019 18:00 7,4 C 6,3 C 5,9 C 72 % 1018,8 hPa 0,0 l/m 0,00 h 0,00 h 17 W/m 11,9 km/h (2 Bft) 96,15 %
18.03.2019 19:00 6,0 C 4,2 C 3,4 C 77 % 1019,5 hPa 0,0 l/m 0,00 h 0,00 h 0 W/m 2,8 km/h (1 Bft) 99,72 %
18.03.2019 20:00 4,5 C 2,9 C 1,6 C 78 % 1020,2 hPa 0,0 l/m 0,00 h 0,00 h 0 W/m 2,6 km/h (1 Bft) 98,24 %
18.03.2019 21:00 3,5 C 2,2 C 1,0 C 80 % 1020,9 hPa 0,0 l/m 0,00 h 0,00 h 0 W/m 1,1 km/h (0 Bft) 96,72 %
18.03.2019 22:00 2,7 C 1,3 C -0,1 C 82 % 1021,7 hPa 0,0 l/m 0,00 h 0,00 h 0 W/m 0,0 km/h (0 Bft) 95,77 %
18.03.2019 23:00 1,9 C 0,6 C -0,8 C 84 % 1022,1 hPa 0,0 l/m 0,00 h 0,00 h 0 W/m 0,0 km/h (0 Bft) 98,65 %
19.03.2019 00:00 1,1 C -0,1 C -1,4 C 85 % 1022,6 hPa 0,0 l/m 0,00 h 0,00 h 0 W/m 0,0 km/h (0 Bft) 98,53 %
19.03.2019 01:00 0,6 C -0,4 C -1,7 C 87 % 1022,7 hPa 0,0 l/m 0,00 h 0,00 h 0 W/m 0,0 km/h (0 Bft) 97,37 %
19.03.2019 02:00 0,3 C -0,6 C -2,2 C 89 % 1023,0 hPa 0,0 l/m 0,00 h 0,00 h 0 W/m 0,0 km/h (0 Bft) 97,22 %
19.03.2019 03:00 -0,2 C -0,9 C -2,2 C 90 % 1023,3 hPa 0,0 l/m 0,00 h 0,00 h 0 W/m 0,0 km/h (0 Bft) 97,58 %
19.03.2019 04:00 -0,5 C -1,6 C -2,8 C 91 % 1023,7 hPa 0,0 l/m 0,00 h 0,00 h 0 W/m 0,0 km/h (0 Bft) 97,07 %
19.03.2019 05:00 -0,8 C -1,7 C -3,0 C 92 % 1024,2 hPa 0,0 l/m 0,00 h 0,00 h 0 W/m 0,0 km/h (0 Bft) 96,71 %
19.03.2019 06:00 -1,3 C -2,1 C -3,1 C 92 % 1024,6 hPa 0,0 l/m 0,00 h 0,00 h 10 W/m 0,0 km/h (0 Bft) 97,47 %
19.03.2019 07:00 -1,0 C -0,4 C -1,4 C 94 % 1025,3 hPa 0,0 l/m 0,00 h 0,00 h 31 W/m 0,0 km/h (0 Bft) 96,03 %
19.03.2019 08:00 0,2 C 1,7 C 0,2 C 95 % 1025,7 hPa 0,0 l/m 0,17 h 0,00 h 78 W/m 3,3 km/h (1 Bft) 99,67 %
19.03.2019 09:00 3,9 C 10,8 C 7,9 C 92 % 1026,1 hPa 0,0 l/m 1,00 h 0,00 h 406 W/m 5,9 km/h (2 Bft) 96,71 %
19.03.2019 10:00 8,2 C 15,1 C 9,2 C 73 % 1026,5 hPa 0,0 l/m 1,00 h 0,00 h 553 W/m 7,4 km/h (2 Bft) 99,39 %
19.03.2019 11:00 10,5 C 17,6 C 9,1 C 60 % 1026,5 hPa 0,0 l/m 1,00 h 0,00 h 655 W/m 8,3 km/h (2 Bft) 97,58 %
19.03.2019 12:00 12,0 C 19,8 C 13,8 C 56 % 1026,5 hPa 0,0 l/m 1,00 h 0,00 h 672 W/m 8,6 km/h (2 Bft) 98,74 %
19.03.2019 13:00 12,3 C 16,2 C 14,4 C 58 % 1026,5 hPa 0,0 l/m 0,63 h 0,00 h 431 W/m 6,9 km/h (2 Bft) 98,15 %
19.03.2019 14:00 12,7 C 19,1 C 12,5 C 60 % 1026,6 hPa 0,0 l/m 1,00 h 0,00 h 693 W/m 8,6 km/h (2 Bft) 97,86 %
19.03.2019 15:00 12,3 C 11,8 C 10,9 C 60 % 1026,6 hPa 0,0 l/m 0,00 h 0,00 h 148 W/m 5,9 km/h (2 Bft) 98,31 %
19.03.2019 16:00 10,7 C 9,6 C 9,1 C 64 % 1026,7 hPa 0,0 l/m 0,00 h 0,03 h 38 W/m 4,7 km/h (1 Bft) 96,66 %
19.03.2019 17:00 9,9 C 8,7 C 7,9 C 69 % 1026,8 hPa 0,0 l/m 0,00 h 0,20 h 34 W/m 3,0 km/h (1 Bft) 98,15 %
19.03.2019 18:00 9,5 C 8,7 C 8,1 C 71 % 1027,2 hPa 0,0 l/m 0,00 h 0,00 h 15 W/m 3,3 km/h (1 Bft) 96,43 %
19.03.2019 19:00 9,1 C 8,1 C 6,7 C 72 % 1027,7 hPa 0,0 l/m 0,00 h 0,00 h 0 W/m 3,8 km/h (1 Bft) 97,29 %
19.03.2019 20:00 8,2 C 6,8 C 4,7 C 74 % 1028,2 hPa 0,0 l/m 0,00 h 0,00 h 0 W/m 3,1 km/h (1 Bft) 98,07 %
19.03.2019 21:00 7,0 C 6,0 C 3,5 C 78 % 1028,7 hPa 0,0 l/m 0,00 h 0,00 h 0 W/m 0,3 km/h (0 Bft) 98,79 %
19.03.2019 22:00 6,0 C 3,8 C 2,6 C 81 % 1029,2 hPa 0,0 l/m 0,00 h 0,00 h 0 W/m 0,0 km/h (0 Bft) 94,68 %
19.03.2019 23:00 4,4 C 2,6 C 1,3 C 83 % 1029,2 hPa 0,0 l/m 0,00 h 0,00 h 0 W/m 0,0 km/h (0 Bft) 98,22 %
20.03.2019 00:00 3,6 C 3,2 C 2,1 C 87 % 1029,5 hPa 0,0 l/m 0,00 h 0,00 h 0 W/m 4,5 km/h (1 Bft) 98,43 %
20.03.2019 01:00 3,8 C 2,6 C 1,6 C 88 % 1029,6 hPa 0,0 l/m 0,00 h 0,00 h 0 W/m 2,0 km/h (1 Bft) 98,35 %
20.03.2019 02:00 3,0 C 2,3 C 1,2 C 89 % 1029,7 hPa 0,0 l/m 0,00 h 0,00 h 0 W/m 2,1 km/h (1 Bft) 95,87 %
20.03.2019 03:00 2,5 C 1,2 C 0,2 C 90 % 1029,7 hPa 0,0 l/m 0,00 h 0,00 h 0 W/m 1,0 km/h (0 Bft) 98,41 %
20.03.2019 04:00 2,1 C 1,7 C 0,9 C 92 % 1029,7 hPa 0,0 l/m 0,00 h 0,00 h 0 W/m 6,8 km/h (2 Bft) 96,80 %
20.03.2019 05:00 1,9 C 1,6 C 0,9 C 93 % 1029,8 hPa 0,0 l/m 0,00 h 0,00 h 0 W/m 11,3 km/h (2 Bft) 99,24 %
20.03.2019 06:00 2,1 C 1,9 C 1,3 C 93 % 1030,0 hPa 0,0 l/m 0,00 h 0,00 h 8 W/m 13,5 km/h (3 Bft) 96,12 %
20.03.2019 07:00 2,5 C 2,5 C 1,9 C 92 % 1030,7 hPa 0,0 l/m 0,00 h 0,00 h 28 W/m 12,0 km/h (2 Bft) 97,13 %
20.03.2019 08:00 3,3 C 4,0 C 3,5 C 92 % 1030,9 hPa 0,0 l/m 0,00 h 0,00 h 107 W/m 10,5 km/h (2 Bft) 98,76 %
20.03.2019 09:00 5,3 C 7,1 C 6,6 C 88 % 1031,3 hPa 0,0 l/m 0,57 h 0,00 h 229 W/m 13,6 km/h (3 Bft) 95,81 %
20.03.2019 10:00 7,7 C 9,8 C 8,9 C 83 % 1031,7 hPa 0,0 l/m 0,77 h 0,00 h 294 W/m 14,3 km/h (3 Bft) 97,94 %
20.03.2019 11:00 10,5 C 12,4 C 11,4 C 77 % 1031,7 hPa 0,0 l/m 0,53 h 0,00 h 317 W/m 14,6 km/h (3 Bft) 99,22 %
20.03.2019 12:00 12,4 C 15,6 C 13,8 C 72 % 1031,6 hPa 0,0 l/m 0,93 h 0,00 h 459 W/m 13,7 km/h (3 Bft) 95,70 %
20.03.2019 13:00 14,0 C 15,3 C 14,6 C 67 % 1031,6 hPa 0,0 l/m 0,53 h 0,00 h 355 W/m 11,8 km/h (2 Bft) 97,15 %
20.03.2019 14:00 13,6 C 14,1 C 13,5 C 69 % 1031,5 hPa 0,0 l/m 0,30 h 0,00 h 252 W/m 10,0 km/h (2 Bft) 96,58 %
20.03.2019 15:00 13,7 C 14,3 C 13,5 C 70 % 1031,6 hPa 0,0 l/m 0,47 h 0,07 h 235 W/m 9,1 km/h (2 Bft) 97,90 %
20.03.2019 16:00 13,4 C 12,8 C 12,3 C 73 % 1031,3 hPa 0,0 l/m 0,00 h 0,33 h 101 W/m 6,0 km/h (2 Bft) 98,67 %
20.03.2019 17:00 13,0 C 12,7 C 12,1 C 74 % 1031,3 hPa 0,0 l/m 0,17 h 0,00 h 79 W/m 4,4 km/h (1 Bft) 96,79 %
20.03.2019 18:00 12,4 C 10,6 C 9,6 C 76 % 1031,4 hPa 0,0 l/m 0,00 h 0,00 h 16 W/m 1,9 km/h (1 Bft) 97,31 %
20.03.2019 19:00 10,6 C 8,3 C 7,2 C 80 % 1031,6 hPa 0,0 l/m 0,00 h 0,00 h 0 W/m 0,0 km/h (0 Bft) 97,31 %
20.03.2019 20:00 8,9 C 6,8 C 5,7 C 84 % 1032,1 hPa 0,0 l/m 0,00 h 0,00 h 0 W/m 0,0 km/h (0 Bft) 97,86 %
20.03.2019 21:00 7,6 C 5,7 C 4,5 C 86 % 1032,2 hPa 0,0 l/m 0,00 h 0,00 h 0 W/m 0,0 km/h (0 Bft) 98,58 %
20.03.2019 22:00 6,5 C 4,8 C 3,8 C 88 % 1032,2 hPa 0,0 l/m 0,00 h 0,00 h 0 W/m 0,0 km/h (0 Bft) 98,22 %
20.03.2019 23:00 5,6 C 4,4 C 3,2 C 89 % 1032,2 hPa 0,0 l/m 0,00 h 0,00 h 0 W/m 0,1 km/h (0 Bft) 94,52 %
21.03.2019 00:00 5,0 C 4,0 C 2,8 C 90 % 1032,2 hPa 0,0 l/m 0,00 h 0,00 h 0 W/m 0,1 km/h (0 Bft) 99,50 %
21.03.2019 01:00 4,5 C 3,2 C 2,4 C 91 % 1032,2 hPa 0,0 l/m 0,00 h 0,00 h 0 W/m 0,0 km/h (0 Bft) 98,01 %
21.03.2019 02:00 4,4 C 4,1 C 2,7 C 93 % 1032,2 hPa 0,0 l/m 0,00 h 0,00 h 0 W/m 0,5 km/h (0 Bft) 97,08 %
21.03.2019 03:00 5,1 C 4,9 C 3,7 C 95 % 1031,9 hPa 0,0 l/m 0,00 h 0,00 h 0 W/m 4,9 km/h (1 Bft) 96,73 %
21.03.2019 04:00 4,9 C 4,2 C 3,4 C 95 % 1031,9 hPa 0,0 l/m 0,00 h 0,00 h 0 W/m 2,5 km/h (1 Bft) 99,29 %
21.03.2019 05:00 4,4 C 3,9 C 2,9 C 95 % 1032,1 hPa 0,0 l/m 0,00 h 0,00 h 0 W/m 2,1 km/h (1 Bft) 95,29 %
21.03.2019 06:00 4,2 C 3,7 C 2,9 C 95 % 1032,3 hPa 0,0 l/m 0,00 h 0,00 h 9 W/m 5,6 km/h (1 Bft) 97,62 %
21.03.2019 07:00 4,2 C 4,1 C 3,4 C 95 % 1032,5 hPa 0,0 l/m 0,00 h 0,00 h 25 W/m 5,5 km/h (1 Bft) 96,73 %
21.03.2019 08:00 5,1 C 6,3 C 4,9 C 95 % 1032,7 hPa 0,0 l/m 0,17 h 0,00 h 86 W/m 9,2 km/h (2 Bft) 97,08 %
21.03.2019 09:00 8,4 C 13,3 C 11,8 C 89 % 1032,7 hPa 0,0 l/m 1,00 h 0,00 h 381 W/m 11,2 km/h (2 Bft) 97,93 %
21.03.2019 10:00 12,1 C 17,7 C 13,2 C 76 % 1032,7 hPa 0,0 l/m 1,00 h 0,00 h 546 W/m 9,7 km/h (2 Bft) 98,15 %
21.03.2019 11:00 14,5 C 20,4 C 13,2 C 66 % 1032,6 hPa 0,0 l/m 1,00 h 0,00 h 641 W/m 9,7 km/h (2 Bft) 99,43 %
21.03.2019 12:00 16,3 C 21,9 C 17,9 C 60 % 1032,3 hPa 0,0 l/m 1,00 h 0,00 h 684 W/m 12,1 km/h (2 Bft) 96,24 %
21.03.2019 13:00 17,3 C 24,1 C 22,7 C 58 % 1031,6 hPa 0,0 l/m 1,00 h 0,00 h 669 W/m 9,7 km/h (2 Bft) 99,86 %
21.03.2019 14:00 18,3 C 23,8 C 16,6 C 55 % 1031,1 hPa 0,0 l/m 1,00 h 0,00 h 590 W/m 7,7 km/h (2 Bft) 96,43 %
21.03.2019 15:00 18,2 C 22,3 C 16,6 C 56 % 1030,5 hPa 0,0 l/m 1,00 h 0,00 h 473 W/m 7,4 km/h (2 Bft) 97,06 %
21.03.2019 16:00 18,2 C 20,7 C 17,9 C 58 % 1030,1 hPa 0,0 l/m 0,93 h 0,00 h 310 W/m 5,5 km/h (1 Bft) 99,64 %
21.03.2019 17:00 16,9 C 15,4 C 13,9 C 61 % 1030,0 hPa 0,0 l/m 0,00 h 0,00 h 45 W/m 4,5 km/h (1 Bft) 95,59 %
21.03.2019 18:00 15,1 C 12,9 C 11,0 C 67 % 1029,9 hPa 0,0 l/m 0,00 h 0,00 h 16 W/m 0,5 km/h (0 Bft) 97,91 %
21.03.2019 19:00 12,9 C 10,2 C 8,4 C 73 % 1030,1 hPa 0,0 l/m 0,00 h 0,00 h 0 W/m 0,0 km/h (0 Bft) 98,29 %
21.03.2019 20:00 10,8 C 8,5 C 7,0 C 79 % 1030,2 hPa 0,0 l/m 0,00 h 0,00 h 0 W/m 0,0 km/h (0 Bft) 97,44 %
21.03.2019 21:00 9,6 C 8,4 C 6,7 C 84 % 1030,3 hPa 0,0 l/m 0,00 h 0,00 h 0 W/m 0,0 km/h (0 Bft) 97,79 %
21.03.2019 22:00 8,9 C 7,0 C 5,7 C 86 % 1030,1 hPa 0,0 l/m 0,00 h 0,00 h 0 W/m 0,0 km/h (0 Bft) 96,87 %
21.03.2019 23:00 7,9 C 6,3 C 4,8 C 87 % 1029,9 hPa 0,0 l/m 0,00 h 0,00 h 0 W/m 0,0 km/h (0 Bft) 97,15 %
22.03.2019 00:00 7,1 C 5,7 C 4,2 C 89 % 1029,5 hPa 0,0 l/m 0,00 h 0,00 h 0 W/m 0,1 km/h (0 Bft) 93,20 %
22.03.2019 01:00 6,6 C 5,6 C 4,1 C 91 % 1029,1 hPa 0,0 l/m 0,00 h 0,00 h 0 W/m 0,0 km/h (0 Bft) 99,15 %
22.03.2019 02:00 6,0 C 4,6 C 3,3 C 91 % 1029,0 hPa 0,0 l/m 0,00 h 0,00 h 0 W/m 0,0 km/h (0 Bft) 96,37 %
22.03.2019 03:00 5,3 C 4,0 C 2,9 C 92 % 1028,8 hPa 0,0 l/m 0,00 h 0,00 h 0 W/m 0,0 km/h (0 Bft) 96,51 %
22.03.2019 04:00 4,8 C 3,4 C 2,6 C 93 % 1028,6 hPa 0,0 l/m 0,00 h 0,00 h 0 W/m 0,0 km/h (0 Bft) 99,29 %
22.03.2019 05:00 4,3 C 3,2 C 2,2 C 93 % 1028,6 hPa 0,0 l/m 0,00 h 0,00 h 0 W/m 0,0 km/h (0 Bft) 97,06 %
22.03.2019 06:00 4,1 C 3,0 C 2,1 C 94 % 1028,5 hPa 0,0 l/m 0,00 h 0,00 h 10 W/m 0,0 km/h (0 Bft) 97,01 %
22.03.2019 07:00 4,1 C 3,8 C 3,0 C 95 % 1028,8 hPa 0,0 l/m 0,00 h 0,00 h 38 W/m 0,0 km/h (0 Bft) 97,06 %
22.03.2019 08:00 5,5 C 6,9 C 5,5 C 96 % 1029,1 hPa 0,0 l/m 0,07 h 0,00 h 80 W/m 0,7 km/h (0 Bft) 98,00 %
22.03.2019 09:00 8,6 C 14,6 C 13,3 C 95 % 1029,1 hPa 0,0 l/m 1,00 h 0,00 h 391 W/m 3,8 km/h (1 Bft) 97,08 %
22.03.2019 10:00 12,6 C 17,5 C 14,3 C 78 % 1028,7 hPa 0,0 l/m 1,00 h 0,00 h 500 W/m 11,4 km/h (2 Bft) 81,46 %
22.03.2019 11:00 15,3 C 20,4 C 14,7 C 66 % 1028,1 hPa 0,0 l/m 1,00 h 0,00 h 598 W/m 13,9 km/h (3 Bft) 93,44 %
22.03.2019 12:00 17,9 C 23,4 C 20,3 C 57 % 1027,4 hPa 0,0 l/m 1,00 h 0,00 h 714 W/m 14,2 km/h (3 Bft) 95,36 %
22.03.2019 13:00 19,4 C 23,5 C 23,9 C 50 % 1026,4 hPa 0,0 l/m 1,00 h 0,00 h 696 W/m 19,5 km/h (3 Bft) 96,93 %
22.03.2019 14:00 20,2 C 23,6 C 19,5 C 44 % 1025,5 hPa 0,0 l/m 1,00 h 0,00 h 633 W/m 20,6 km/h (4 Bft) 99,86 %
22.03.2019 15:00 20,6 C 23,3 C 20,1 C 41 % 1024,7 hPa 0,0 l/m 1,00 h 0,00 h 514 W/m 19,9 km/h (4 Bft) 95,09 %
22.03.2019 16:00 20,8 C 22,3 C 21,1 C 43 % 1024,0 hPa 0,0 l/m 0,93 h 0,00 h 340 W/m 16,1 km/h (3 Bft) 98,00 %
22.03.2019 17:00 19,8 C 18,7 C 17,8 C 46 % 1023,7 hPa 0,0 l/m 0,00 h 0,00 h 34 W/m 11,8 km/h (2 Bft) 99,36 %
22.03.2019 18:00 18,4 C 16,4 C 14,6 C 51 % 1023,5 hPa 0,0 l/m 0,00 h 0,00 h 14 W/m 4,2 km/h (1 Bft) 95,00 %
22.03.2019 19:00 15,2 C 11,7 C 10,0 C 62 % 1023,8 hPa 0,0 l/m 0,00 h 0,00 h 0 W/m 0,0 km/h (0 Bft) 98,51 %
22.03.2019 20:00 12,3 C 9,9 C 8,1 C 69 % 1024,0 hPa 0,0 l/m 0,00 h 0,00 h 0 W/m 0,0 km/h (0 Bft) 98,22 %
22.03.2019 21:00 10,6 C 8,9 C 7,2 C 74 % 1024,0 hPa 0,0 l/m 0,00 h 0,00 h 0 W/m 0,5 km/h (0 Bft) 97,36 %
22.03.2019 22:00 9,6 C 8,3 C 6,4 C 77 % 1024,0 hPa 0,0 l/m 0,00 h 0,00 h 0 W/m 1,0 km/h (0 Bft) 97,80 %
22.03.2019 23:00 8,8 C 7,9 C 5,8 C 79 % 1024,2 hPa 0,0 l/m 0,00 h 0,00 h 0 W/m 2,1 km/h (1 Bft) 96,30 %
23.03.2019 00:00 8,7 C 7,6 C 6,4 C 82 % 1024,6 hPa 0,0 l/m 0,00 h 0,00 h 0 W/m 1,0 km/h (0 Bft) 98,38 %
23.03.2019 01:00 8,0 C 6,5 C 5,1 C 83 % 1024,9 hPa 0,0 l/m 0,00 h 0,00 h 0 W/m 0,6 km/h (0 Bft) 97,08 %
23.03.2019 02:00 7,3 C 6,1 C 5,8 C 89 % 1025,6 hPa 0,0 l/m 0,00 h 0,00 h 0 W/m 16,6 km/h (3 Bft) 99,50 %
23.03.2019 03:00 6,7 C 5,9 C 5,6 C 93 % 1025,8 hPa 0,0 l/m 0,00 h 0,00 h 0 W/m 14,1 km/h (3 Bft) 95,30 %
23.03.2019 04:00 6,7 C 6,1 C 6,1 C 95 % 1026,1 hPa 0,0 l/m 0,00 h 0,00 h 0 W/m 5,3 km/h (1 Bft) 97,61 %
23.03.2019 05:00 6,9 C 6,7 C 6,1 C 95 % 1026,3 hPa 0,0 l/m 0,00 h 0,00 h 0 W/m 0,7 km/h (0 Bft) 98,46 %
23.03.2019 06:00 7,0 C 6,7 C 6,6 C 95 % 1026,8 hPa 0,0 l/m 0,00 h 0,00 h 5 W/m 1,9 km/h (1 Bft) 97,56 %
23.03.2019 07:00 7,2 C 7,1 C 6,8 C 93 % 1027,2 hPa 0,0 l/m 0,00 h 0,00 h 18 W/m 1,9 km/h (1 Bft) 96,23 %
23.03.2019 08:00 7,6 C 8,0 C 7,5 C 92 % 1027,3 hPa 0,0 l/m 0,00 h 0,00 h 49 W/m 0,0 km/h (0 Bft) 97,21 %
23.03.2019 09:00 8,3 C 8,7 C 8,3 C 89 % 1027,6 hPa 0,0 l/m 0,00 h 0,00 h 78 W/m 3,1 km/h (1 Bft) 97,75 %
23.03.2019 10:00 9,0 C 9,9 C 9,5 C 86 % 1027,9 hPa 0,0 l/m 0,00 h 0,00 h 150 W/m 4,5 km/h (1 Bft) 98,15 %
23.03.2019 11:00 10,4 C 13,1 C 11,8 C 81 % 1028,0 hPa 0,0 l/m 0,40 h 0,00 h 301 W/m 8,2 km/h (2 Bft) 96,58 %
23.03.2019 12:00 11,9 C 13,2 C 12,3 C 78 % 1028,0 hPa 0,0 l/m 0,27 h 0,00 h 236 W/m 9,7 km/h (2 Bft) 97,68 %
23.03.2019 13:00 11,8 C 12,3 C 11,7 C 79 % 1028,2 hPa 0,0 l/m 0,00 h 0,00 h 183 W/m 7,7 km/h (2 Bft) 97,72 %
23.03.2019 14:00 11,8 C 12,5 C 11,9 C 80 % 1028,2 hPa 0,0 l/m 0,00 h 0,00 h 174 W/m 8,0 km/h (2 Bft) 97,93 %
23.03.2019 15:00 11,9 C 12,0 C 11,5 C 81 % 1028,1 hPa 0,0 l/m 0,00 h 0,00 h 114 W/m 7,3 km/h (2 Bft) 98,08 %
23.03.2019 16:00 11,6 C 11,6 C 11,1 C 82 % 1028,1 hPa 0,0 l/m 0,00 h 0,00 h 78 W/m 6,4 km/h (2 Bft) 95,16 %
23.03.2019 17:00 11,4 C 10,9 C 10,5 C 84 % 1028,0 hPa 0,0 l/m 0,00 h 0,00 h 34 W/m 9,0 km/h (2 Bft) 99,21 %
23.03.2019 18:00 11,1 C 10,2 C 9,8 C 85 % 1027,9 hPa 0,0 l/m 0,00 h 0,00 h 12 W/m 7,9 km/h (2 Bft) 98,71 %
23.03.2019 19:00 10,7 C 9,5 C 9,1 C 88 % 1028,1 hPa 0,0 l/m 0,00 h 0,00 h 0 W/m 9,2 km/h (2 Bft) 95,22 %
23.03.2019 20:00 10,1 C 8,9 C 8,4 C 92 % 1028,4 hPa 0,0 l/m 0,00 h 0,00 h 0 W/m 4,1 km/h (1 Bft) 97,72 %
23.03.2019 21:00 9,7 C 8,9 C 8,6 C 93 % 1028,4 hPa 0,0 l/m 0,00 h 0,00 h 0 W/m 2,2 km/h (1 Bft) 98,01 %
23.03.2019 22:00 9,5 C 8,9 C 8,3 C 93 % 1028,0 hPa 0,0 l/m 0,00 h 0,00 h 0 W/m 4,4 km/h (1 Bft) 97,22 %
23.03.2019 23:00 9,2 C 8,6 C 8,3 C 92 % 1027,7 hPa 0,0 l/m 0,00 h 0,00 h 0 W/m 6,1 km/h (2 Bft) 97,93 %
24.03.2019 00:00 9,1 C 8,3 C 8,0 C 89 % 1027,4 hPa 0,0 l/m 0,00 h 0,00 h 0 W/m 8,5 km/h (2 Bft) 96,42 %
24.03.2019 01:00 8,7 C 7,9 C 7,5 C 88 % 1027,2 hPa 0,0 l/m 0,00 h 0,00 h 0 W/m 8,3 km/h (2 Bft) 98,07 %
24.03.2019 02:00 8,2 C 7,2 C 7,1 C 89 % 1026,9 hPa 0,0 l/m 0,00 h 0,00 h 0 W/m 8,4 km/h (2 Bft) 98,86 %
24.03.2019 03:00 7,7 C 6,8 C 6,6 C 89 % 1026,6 hPa 0,0 l/m 0,00 h 0,00 h 0 W/m 7,7 km/h (2 Bft) 95,09 %
24.03.2019 04:00 7,2 C 6,5 C 6,1 C 90 % 1026,3 hPa 0,0 l/m 0,00 h 0,00 h 0 W/m 3,4 km/h (1 Bft) 98,43 %
24.03.2019 05:00 6,9 C 6,1 C 5,9 C 90 % 1026,0 hPa 0,0 l/m 0,00 h 0,00 h 0 W/m 4,4 km/h (1 Bft) 98,18 %
24.03.2019 06:00 6,6 C 6,1 C 5,6 C 89 % 1025,8 hPa 0,0 l/m 0,00 h 0,00 h 6 W/m 6,4 km/h (2 Bft) 96,73 %
24.03.2019 07:00 6,4 C 6,2 C 5,7 C 88 % 1025,8 hPa 0,0 l/m 0,00 h 0,00 h 37 W/m 6,6 km/h (2 Bft) 97,16 %
24.03.2019 08:00 6,4 C 8,1 C 6,0 C 88 % 1025,5 hPa 0,0 l/m 0,20 h 0,00 h 113 W/m 5,3 km/h (1 Bft) 97,51 %
24.03.2019 09:00 8,9 C 16,2 C 12,6 C 84 % 1025,3 hPa 0,0 l/m 0,97 h 0,00 h 400 W/m 9,3 km/h (2 Bft) 95,23 %
24.03.2019 10:00 11,5 C 18,0 C 13,3 C 76 % 1025,5 hPa 0,0 l/m 0,93 h 0,00 h 476 W/m 14,7 km/h (3 Bft) 96,23 %
24.03.2019 11:00 12,9 C 20,8 C 12,6 C 69 % 1025,3 hPa 0,0 l/m 1,00 h 0,00 h 645 W/m 17,6 km/h (3 Bft) 95,65 %
24.03.2019 12:00 13,8 C 21,2 C 15,8 C 64 % 1024,9 hPa 0,0 l/m 1,00 h 0,00 h 662 W/m 15,8 km/h (3 Bft) 96,61 %
24.03.2019 13:00 14,0 C 19,3 C 17,8 C 56 % 1024,6 hPa 0,0 l/m 1,00 h 0,00 h 596 W/m 20,6 km/h (4 Bft) 97,86 %
24.03.2019 14:00 12,7 C 16,9 C 13,0 C 54 % 1024,3 hPa 0,0 l/m 1,00 h 0,00 h 516 W/m 23,9 km/h (4 Bft) 98,36 %
24.03.2019 15:00 13,3 C 18,4 C 12,7 C 50 % 1023,9 hPa 0,0 l/m 1,00 h 0,00 h 535 W/m 18,6 km/h (3 Bft) 98,57 %
24.03.2019 16:00 13,4 C 16,2 C 12,6 C 49 % 1023,3 hPa 0,0 l/m 0,97 h 0,00 h 365 W/m 11,4 km/h (2 Bft) 96,42 %
24.03.2019 17:00 11,6 C 10,5 C 9,9 C 55 % 1023,0 hPa 0,0 l/m 0,00 h 0,00 h 39 W/m 12,9 km/h (3 Bft) 97,58 %
24.03.2019 18:00 10,0 C 8,6 C 8,3 C 57 % 1022,8 hPa 0,0 l/m 0,00 h 0,00 h 16 W/m 11,2 km/h (2 Bft) 97,52 %
24.03.2019 19:00 8,6 C 7,0 C 6,8 C 66 % 1023,0 hPa 0,0 l/m 0,00 h 0,00 h 0 W/m 9,8 km/h (2 Bft) 96,20 %
24.03.2019 20:00 7,1 C 5,3 C 4,8 C 71 % 1023,1 hPa 0,0 l/m 0,00 h 0,00 h 0 W/m 5,4 km/h (1 Bft) 96,94 %
24.03.2019 21:00 5,8 C 4,4 C 4,3 C 75 % 1023,1 hPa 0,0 l/m 0,00 h 0,00 h 0 W/m 8,3 km/h (2 Bft) 99,66 %
24.03.2019 22:00 5,1 C 3,6 C 3,0 C 79 % 1022,8 hPa 0,0 l/m 0,00 h 0,00 h 0 W/m 2,3 km/h (1 Bft) 98,06 %
24.03.2019 23:00 4,3 C 3,3 C 2,5 C 81 % 1022,3 hPa 0,0 l/m 0,00 h 0,00 h 0 W/m 3,0 km/h (1 Bft) 97,21 %
Min-Datum _ 19.03.19 19.03.19 19.03.19 22.03.19 18.03.19 - - - - 18.03.19 22.03.19
_ Min-Zeit 06:52 05:52 05:40 15:32 00:00 - - - - 05:46 00:02
Minimum _ -1,5 C -2,8 C -3,3 C 40 % 1008,9 hPa - - - - 0,0 km/h (0 Bft) 6,25 %
Max-Datum _ 22.03.19 21.03.19 22.03.19 22.03.19 21.03.19 18.03.19 19.03.19 18.03.19 18.03.19 18.03.19 18.03.19
_ Max-Zeit 16:08 14:20 12:58 08:58 08:52 04:22 12:08 05:10 12:48 13:04 00:00
Maximum _ 20,9 C 27,2 C 27,2 C 97 % 1032,8 hPa 0,6 l/m 0,07 h 0,08 h 782 W/m 35,4 km/h
N (5 Bft)
100,00 %
Durchschnitt _ 8,4 C 9,0 C 7,4 C 80 % 1026,1 hPa #0,8 l/m #40:36 h #3:44 h 266 W/m 6,8 km/h (2 Bft) 97,34 %
© 2019 W. Hausmann